createdAt,value
2022-09-09T00:00:58.008Z,97637.84
2022-09-09T00:03:33.195Z,97639.69
2022-09-09T00:06:12.369Z,97642.09
2022-09-09T00:08:58.943Z,97634.41
2022-09-09T00:11:37.721Z,97627.78
2022-09-09T00:14:20.674Z,97623.91
2022-09-09T00:16:58.021Z,97625.06
2022-09-09T00:19:35.231Z,97619.91
2022-09-09T00:22:18.483Z,97617.75
2022-09-09T00:24:51.322Z,97626.47
2022-09-09T00:27:32.802Z,97620.84
2022-09-09T00:30:17.285Z,97616.81
2022-09-09T00:32:48.643Z,97615.91
2022-09-09T00:35:24.891Z,97618.56
2022-09-09T00:38:34.663Z,97617.53
2022-09-09T00:41:13.999Z,97623.56
2022-09-09T00:43:43.728Z,97624.97
2022-09-09T00:46:55.375Z,97608.69
2022-09-09T00:49:42.290Z,97613.50
2022-09-09T00:52:31.555Z,97602.47
2022-09-09T00:55:14.527Z,97609.38
2022-09-09T00:57:43.993Z,97612.00
2022-09-09T01:00:25.037Z,97604.09
2022-09-09T01:03:21.899Z,97612.69
2022-09-09T01:06:04.617Z,97619.78
2022-09-09T01:08:59.186Z,97622.22
2022-09-09T01:11:36.170Z,97618.91
2022-09-09T01:14:20.091Z,97618.78
2022-09-09T01:16:50.845Z,97630.81
2022-09-09T01:19:37.493Z,97627.28
2022-09-09T01:22:24.576Z,97629.09
2022-09-09T01:25:26.861Z,97628.88
2022-09-09T01:28:03.573Z,97622.00
2022-09-09T01:30:33.771Z,97620.38
2022-09-09T01:33:04.332Z,97623.03
2022-09-09T01:35:47.330Z,97629.69
2022-09-09T01:38:17.751Z,97625.56
2022-09-09T01:40:47.329Z,97633.22
2022-09-09T01:43:18.303Z,97634.03
2022-09-09T01:45:50.674Z,97630.38
2022-09-09T01:48:21.183Z,97633.34
2022-09-09T01:50:49.717Z,97635.19
2022-09-09T01:53:20.635Z,97635.19
2022-09-09T01:56:04.695Z,97636.22
2022-09-09T01:58:54.306Z,97640.66
2022-09-09T02:01:37.992Z,97632.88
2022-09-09T02:04:25.268Z,97620.03
2022-09-09T02:06:59.303Z,97626.34
2022-09-09T02:09:33.091Z,97629.56
2022-09-09T02:12:16.712Z,97620.38
2022-09-09T02:14:57.452Z,97622.22
2022-09-09T02:17:35.574Z,97612.47
2022-09-09T02:20:10.869Z,97603.88
2022-09-09T02:22:45.542Z,97598.94
2022-09-09T02:25:21.747Z,97594.91
2022-09-09T02:27:53.561Z,97601.25
2022-09-09T02:30:23.801Z,97588.28
2022-09-09T02:32:58.905Z,97594.56
2022-09-09T02:35:31.720Z,97587.47
2022-09-09T02:38:08.887Z,97593.78
2022-09-09T02:40:37.495Z,97605.84
2022-09-09T02:43:07.478Z,97606.38
2022-09-09T02:45:50.921Z,97605.13
2022-09-09T02:48:36.844Z,97606.97
2022-09-09T02:51:16.778Z,97612.25
2022-09-09T02:53:56.682Z,97620.25
2022-09-09T02:56:35.447Z,97626.13
2022-09-09T02:59:06.539Z,97626.69
2022-09-09T03:01:38.188Z,97618.31
2022-09-09T03:04:07.983Z,97618.31
2022-09-09T03:06:36.659Z,97604.88
2022-09-09T03:09:05.942Z,97609.38
2022-09-09T03:11:35.134Z,97611.75
2022-09-09T03:14:05.370Z,97612.34
2022-09-09T03:16:34.549Z,97612.56
2022-09-09T03:19:05.021Z,97607.06
2022-09-09T03:21:34.031Z,97599.94
2022-09-09T03:24:04.354Z,97614.50
2022-09-09T03:26:33.140Z,97601.53
2022-09-09T03:29:02.880Z,97606.34
2022-09-09T03:31:32.323Z,97597.88
2022-09-09T03:34:01.505Z,97596.25
2022-09-09T03:36:31.932Z,97597.88
2022-09-09T03:39:01.391Z,97605.22
2022-09-09T03:41:30.091Z,97610.03
2022-09-09T03:43:58.683Z,97607.16
2022-09-09T03:46:28.874Z,97606.47
2022-09-09T03:48:58.218Z,97609.09
2022-09-09T03:51:26.778Z,97611.72
2022-09-09T03:53:57.948Z,97613.91
2022-09-09T03:56:26.599Z,97608.63
2022-09-09T03:58:55.178Z,97604.50
2022-09-09T04:01:23.861Z,97605.28
2022-09-09T04:03:53.720Z,97600.81
2022-09-09T04:06:22.480Z,97607.69
2022-09-09T04:08:51.756Z,97603.22
2022-09-09T04:11:22.134Z,97599.75
2022-09-09T04:13:51.595Z,97608.03
2022-09-09T04:16:21.309Z,97605.63
2022-09-09T04:18:50.921Z,97607.25
2022-09-09T04:21:19.452Z,97612.28
2022-09-09T04:23:48.373Z,97615.38
2022-09-09T04:26:17.981Z,97613.78
2022-09-09T04:28:48.626Z,97615.84
2022-09-09T04:31:22.686Z,97610.25
2022-09-09T04:33:51.620Z,97619.19
2022-09-09T04:36:21.635Z,97617.00
2022-09-09T04:38:50.777Z,97616.00
2022-09-09T04:41:19.300Z,97604.63
2022-09-09T04:43:50.534Z,97615.88
2022-09-09T04:46:19.125Z,97613.00
2022-09-09T04:48:48.104Z,97623.78
2022-09-09T04:51:17.365Z,97622.63
2022-09-09T04:53:47.057Z,97626.34
2022-09-09T04:56:19.516Z,97620.00
2022-09-09T04:58:49.503Z,97616.34
2022-09-09T05:01:20.970Z,97617.28
2022-09-09T05:03:49.827Z,97626.00
2022-09-09T05:06:23.474Z,97624.13
2022-09-09T05:08:52.068Z,97617.28
2022-09-09T05:11:25.142Z,97624.03
2022-09-09T05:13:57.300Z,97625.66
2022-09-09T05:16:26.525Z,97622.44
2022-09-09T05:18:55.945Z,97618.78
2022-09-09T05:21:27.556Z,97626.22
2022-09-09T05:23:56.213Z,97636.75
2022-09-09T05:26:25.525Z,97636.88
2022-09-09T05:28:56.109Z,97645.34
2022-09-09T05:31:27.309Z,97639.06
2022-09-09T05:33:56.884Z,97647.53
2022-09-09T05:36:26.408Z,97648.88
2022-09-09T05:38:55.743Z,97654.16
2022-09-09T05:41:25.027Z,97645.56
2022-09-09T05:43:54.901Z,97658.53
2022-09-09T05:46:26.060Z,97652.47
2022-09-09T05:48:55.807Z,97654.06
2022-09-09T05:51:27.633Z,97663.09
2022-09-09T05:53:59.630Z,97655.66
2022-09-09T05:56:30.349Z,97657.81
2022-09-09T05:59:01.304Z,97661.59
2022-09-09T06:01:32.630Z,97670.66
2022-09-09T06:04:01.304Z,97666.75
2022-09-09T06:06:37.629Z,97665.50
2022-09-09T06:09:10.883Z,97665.03
2022-09-09T06:11:41.649Z,97659.28
2022-09-09T06:14:12.248Z,97657.19
2022-09-09T06:16:43.383Z,97658.34
2022-09-09T06:19:13.261Z,97656.31
2022-09-09T06:21:42.217Z,97653.22
2022-09-09T06:24:11.304Z,97647.44
2022-09-09T06:26:42.898Z,97651.22
2022-09-09T06:29:13.286Z,97640.19
2022-09-09T06:31:42.450Z,97649.47
2022-09-09T06:34:12.145Z,97650.03
2022-09-09T06:36:41.769Z,97646.94
2022-09-09T06:39:15.018Z,97651.97
2022-09-09T06:41:44.699Z,97653.59
2022-09-09T06:44:14.535Z,97650.47
2022-09-09T06:46:43.633Z,97649.19
2022-09-09T06:49:12.926Z,97648.97
2022-09-09T06:51:43.936Z,97649.50
2022-09-09T06:54:14.189Z,97654.91
2022-09-09T06:56:46.332Z,97652.00
2022-09-09T06:59:16.577Z,97657.28
2022-09-09T07:01:46.488Z,97657.06
2022-09-09T07:04:18.731Z,97665.00
2022-09-09T07:06:49.326Z,97660.84
2022-09-09T07:09:19.344Z,97655.31
2022-09-09T07:11:53.283Z,97659.00
2022-09-09T07:14:23.745Z,97655.63
2022-09-09T07:16:53.789Z,97664.94
2022-09-09T07:19:25.757Z,97663.66
2022-09-09T07:21:54.248Z,97655.47
2022-09-09T07:24:23.674Z,97652.63
2022-09-09T07:26:53.201Z,97673.19
2022-09-09T07:29:24.166Z,97662.06
2022-09-09T07:31:53.126Z,97663.41
2022-09-09T07:34:22.235Z,97666.84
2022-09-09T07:36:51.945Z,97677.91
2022-09-09T07:39:22.297Z,97674.47
2022-09-09T07:41:52.581Z,97677.09
2022-09-09T07:44:25.989Z,97669.44
2022-09-09T07:46:54.957Z,97673.09
2022-09-09T07:49:29.648Z,97679.34
2022-09-09T07:51:59.598Z,97675.31
2022-09-09T07:54:28.824Z,97674.75
2022-09-09T07:56:57.334Z,97675.78
2022-09-09T07:59:28.069Z,97683.47
2022-09-09T08:01:56.780Z,97676.59
2022-09-09T08:04:29.461Z,97680.84
2022-09-09T08:07:01.742Z,97676.59
2022-09-09T08:09:30.868Z,97681.66
2022-09-09T08:12:01.001Z,97687.50
2022-09-09T08:14:31.083Z,97695.66
2022-09-09T08:17:00.035Z,97690.13
2022-09-09T08:19:30.357Z,97692.88
2022-09-09T08:22:01.478Z,97698.56
2022-09-09T08:24:31.429Z,97693.59
2022-09-09T08:27:00.621Z,97691.53
2022-09-09T08:29:30.581Z,97694.41
2022-09-09T08:32:00.933Z,97693.47
2022-09-09T08:34:31.564Z,97696.19
2022-09-09T08:37:00.226Z,97701.00
2022-09-09T08:39:29.060Z,97698.47
2022-09-09T08:42:37.538Z,97697.25
2022-09-09T08:45:33.603Z,97694.44
2022-09-09T08:48:37.893Z,97698.22
2022-09-09T08:51:09.108Z,97702.69
2022-09-09T08:53:46.213Z,97694.34
2022-09-09T08:56:20.869Z,97697.31
2022-09-09T08:58:53.697Z,97709.25
2022-09-09T09:01:47.479Z,97690.88
2022-09-09T09:04:45.080Z,97688.41
2022-09-09T09:07:33.656Z,97690.03
2022-09-09T09:10:37.746Z,97693.22
2022-09-09T09:13:05.394Z,97702.19
2022-09-09T09:15:39.704Z,97703.84
2022-09-09T09:18:17.041Z,97698.66
2022-09-09T09:21:00.781Z,97697.69
2022-09-09T09:23:40.841Z,97692.53
2022-09-09T09:26:13.118Z,97682.91
2022-09-09T09:28:43.077Z,97676.72
2022-09-09T09:31:14.842Z,97682.59
2022-09-09T09:33:54.424Z,97681.47
2022-09-09T09:36:28.308Z,97683.16
2022-09-09T09:41:50.399Z,97680.53
2022-09-09T09:44:28.378Z,97688.34
2022-09-09T09:47:10.538Z,97688.13
2022-09-09T09:49:40.725Z,97681.78
2022-09-09T09:52:20.058Z,97688.66
2022-09-09T09:54:48.692Z,97686.59
2022-09-09T09:57:19.918Z,97687.06
2022-09-09T09:59:48.982Z,97673.97
2022-09-09T10:02:25.791Z,97673.41
2022-09-09T10:05:06.778Z,97666.56
2022-09-09T10:07:35.585Z,97661.78
2022-09-09T10:10:05.313Z,97660.13
2022-09-09T10:12:53.546Z,97667.63
2022-09-09T10:15:42.254Z,97652.34
2022-09-09T10:18:38.293Z,97657.41
2022-09-09T10:21:31.077Z,97659.56
2022-09-09T10:24:34.548Z,97673.69
2022-09-09T10:27:14.269Z,97681.63
2022-09-09T10:30:10.526Z,97685.19
2022-09-09T10:32:49.084Z,97686.31
2022-09-09T10:35:35.760Z,97692.00
2022-09-09T10:38:19.709Z,97697.22
2022-09-09T10:41:20.473Z,97713.47
2022-09-09T10:44:23.030Z,97702.63
2022-09-09T10:47:27.896Z,97690.63
2022-09-09T10:50:20.969Z,97695.28
2022-09-09T10:53:02.796Z,97681.56
2022-09-09T10:55:41.990Z,97682.28
2022-09-09T10:58:18.834Z,97674.34
2022-09-09T11:00:58.166Z,97671.69
2022-09-09T11:03:31.634Z,97673.78
2022-09-09T11:06:07.439Z,97655.19
2022-09-09T11:08:41.414Z,97656.00
2022-09-09T11:11:20.586Z,97657.84
2022-09-09T11:13:58.926Z,97657.59
2022-09-09T11:16:35.943Z,97659.53
2022-09-09T11:19:16.682Z,97667.22
2022-09-09T11:21:50.541Z,97659.84
2022-09-09T11:24:28.080Z,97658.88
2022-09-09T11:27:05.752Z,97657.75
2022-09-09T11:30:32.014Z,97652.09
2022-09-09T11:33:51.725Z,97644.72
2022-09-09T11:36:57.249Z,97644.34
2022-09-09T11:39:49.568Z,97646.69
2022-09-09T11:42:25.133Z,97653.19
2022-09-09T11:44:55.935Z,97650.09
2022-09-09T11:47:30.676Z,97651.22
2022-09-09T11:50:31.577Z,97650.22
2022-09-09T11:53:24.524Z,97648.97
2022-09-09T11:56:25.768Z,97645.06
2022-09-09T11:59:03.830Z,97641.97
2022-09-09T12:01:42.745Z,97634.59
2022-09-09T12:04:35.489Z,97642.22
2022-09-09T12:07:24.868Z,97637.22
2022-09-09T12:10:00.870Z,97627.97
2022-09-09T12:12:33.929Z,97624.53
2022-09-09T12:15:48.800Z,97622.75
2022-09-09T12:18:26.349Z,97618.84
2022-09-09T12:21:05.783Z,97618.34
2022-09-09T12:23:45.567Z,97623.13
2022-09-09T12:26:31.439Z,97620.91
2022-09-09T12:29:16.116Z,97646.25
2022-09-09T12:31:58.720Z,97670.69
2022-09-09T12:34:40.764Z,97680.38
2022-09-09T12:37:24.214Z,97700.34
2022-09-09T12:39:57.696Z,97675.38
2022-09-09T12:42:27.364Z,97676.78
2022-09-09T12:45:01.747Z,97680.16
2022-09-09T12:47:44.199Z,97670.53
2022-09-09T12:50:23.273Z,97667.66
2022-09-09T12:52:56.418Z,97664.84
2022-09-09T12:55:31.229Z,97649.47
2022-09-09T12:58:06.201Z,97646.41
2022-09-09T13:00:36.308Z,97645.44
2022-09-09T13:03:21.845Z,97647.66
2022-09-09T13:05:52.124Z,97650.09
2022-09-09T13:08:22.022Z,97657.28
2022-09-09T13:11:01.846Z,97672.75
2022-09-09T13:13:38.094Z,97676.22
2022-09-09T13:16:21.297Z,97689.34
2022-09-09T13:18:52.288Z,97685.38
2022-09-09T13:21:34.543Z,97675.63
2022-09-09T13:24:08.696Z,97662.56
2022-09-09T13:26:40.225Z,97662.00
2022-09-09T13:29:21.064Z,97658.41
2022-09-09T13:31:53.662Z,97644.91
2022-09-09T13:34:34.065Z,97643.06
2022-09-09T13:37:07.005Z,97648.63
2022-09-09T13:39:38.949Z,97647.06
2022-09-09T13:42:10.156Z,97644.16
2022-09-09T13:44:43.452Z,97639.69
2022-09-09T13:47:24.395Z,97640.97
2022-09-09T13:49:55.658Z,97644.91
2022-09-09T13:52:27.248Z,97644.84
2022-09-09T13:54:56.818Z,97643.97
2022-09-09T13:57:28.781Z,97632.03
2022-09-09T14:00:05.853Z,97634.00
2022-09-09T14:02:37.012Z,97645.84
2022-09-09T14:05:08.285Z,97643.22
2022-09-09T14:07:38.328Z,97651.41
2022-09-09T14:10:09.990Z,97661.28
2022-09-09T14:12:39.311Z,97645.19
2022-09-09T14:15:10.457Z,97643.84
2022-09-09T14:17:39.187Z,97644.59
2022-09-09T14:20:13.032Z,97655.94
2022-09-09T14:22:41.943Z,97671.34
2022-09-09T14:25:11.209Z,97663.63
2022-09-09T14:27:40.726Z,97631.66
2022-09-09T14:30:11.178Z,97642.09
2022-09-09T14:32:39.640Z,97631.97
2022-09-09T14:35:12.771Z,97635.19
2022-09-09T14:37:41.426Z,97643.44
2022-09-09T14:40:10.805Z,97658.28
2022-09-09T14:42:39.853Z,97654.66
2022-09-09T14:45:10.730Z,97663.28
2022-09-09T14:47:39.213Z,97655.00
2022-09-09T14:50:10.757Z,97661.19
2022-09-09T14:52:39.174Z,97653.06
2022-09-09T14:55:09.593Z,97650.44
2022-09-09T14:57:38.136Z,97660.94
2022-09-09T15:00:08.544Z,97681.56
2022-09-09T15:02:37.793Z,97686.16
2022-09-09T15:05:09.550Z,97689.25
2022-09-09T15:07:38.479Z,97687.66
2022-09-09T15:10:08.072Z,97686.56
2022-09-09T15:12:37.799Z,97681.03
2022-09-09T15:15:07.831Z,97671.75
2022-09-09T15:17:37.086Z,97666.63
2022-09-09T15:20:07.340Z,97652.25
2022-09-09T15:22:39.013Z,97652.94
2022-09-09T15:25:09.300Z,97672.97
2022-09-09T15:27:40.406Z,97684.03
2022-09-09T15:30:11.124Z,97692.22
2022-09-09T15:32:39.730Z,97689.47
2022-09-09T15:35:09.757Z,97676.50
2022-09-09T15:37:39.678Z,97671.06
2022-09-09T15:40:10.369Z,97668.63
2022-09-09T15:42:38.840Z,97669.59
2022-09-09T15:45:11.062Z,97664.00
2022-09-09T15:47:40.571Z,97658.59
2022-09-09T15:50:09.465Z,97665.06
2022-09-09T15:52:40.690Z,97677.06
2022-09-09T15:55:10.315Z,97688.66
2022-09-09T15:57:39.413Z,97693.47
2022-09-09T16:00:13.463Z,97697.72
2022-09-09T16:02:42.638Z,97699.00
2022-09-09T16:05:11.615Z,97702.69
2022-09-09T16:07:43.427Z,97697.72
2022-09-09T16:10:12.675Z,97689.25
2022-09-09T16:12:41.132Z,97695.47
2022-09-09T16:15:11.382Z,97693.72
2022-09-09T16:17:39.767Z,97696.09
2022-09-09T16:20:09.817Z,97705.66
2022-09-09T16:22:38.479Z,97697.25
2022-09-09T16:25:11.438Z,97689.91
2022-09-09T16:27:39.992Z,97688.28
2022-09-09T16:30:11.199Z,97689.00
2022-09-09T16:32:40.543Z,97698.34
2022-09-09T16:35:09.530Z,97702.47
2022-09-09T16:37:38.082Z,97705.47
2022-09-09T16:40:10.420Z,97702.34
2022-09-09T16:42:39.749Z,97716.28
2022-09-09T16:45:09.551Z,97712.38
2022-09-09T16:47:40.513Z,97712.72
2022-09-09T16:50:11.809Z,97727.41
2022-09-09T16:52:40.693Z,97730.19
2022-09-09T16:55:11.375Z,97714.13
2022-09-09T16:57:40.514Z,97726.06
2022-09-09T17:00:11.750Z,97731.13
2022-09-09T17:02:40.881Z,97735.72
2022-09-09T17:05:10.269Z,97752.34
2022-09-09T17:07:38.779Z,97764.88
2022-09-09T17:10:10.301Z,97769.22
2022-09-09T17:12:42.251Z,97748.09
2022-09-09T17:15:12.692Z,97737.88
2022-09-09T17:17:41.204Z,97746.72
2022-09-09T17:20:10.878Z,97746.53
2022-09-09T17:22:39.668Z,97750.19
2022-09-09T17:25:11.094Z,97752.47
2022-09-09T17:27:40.080Z,97748.59
2022-09-09T17:30:10.274Z,97749.06
2022-09-09T17:32:38.727Z,97750.75
2022-09-09T17:35:09.705Z,97777.47
2022-09-09T17:37:38.628Z,97776.09
2022-09-09T17:40:12.593Z,97770.63
2022-09-09T17:42:43.239Z,97772.19
2022-09-09T17:45:13.913Z,97786.56
2022-09-09T17:47:43.976Z,97783.47
2022-09-09T17:50:13.955Z,97758.91
2022-09-09T17:52:43.499Z,97781.84
2022-09-09T17:55:12.804Z,97788.50
2022-09-09T17:57:43.371Z,97775.31
2022-09-09T18:00:13.666Z,97797.66
2022-09-09T18:02:42.481Z,97807.16
2022-09-09T18:05:11.410Z,97810.47
2022-09-09T18:07:39.987Z,97802.13
2022-09-09T18:10:09.357Z,97806.38
2022-09-09T18:12:37.848Z,97807.28
2022-09-09T18:15:11.358Z,97805.19
2022-09-09T18:17:39.802Z,97798.81
2022-09-09T18:20:11.328Z,97793.94
2022-09-09T18:22:40.165Z,97799.22
2022-09-09T18:25:09.628Z,97792.13
2022-09-09T18:27:38.224Z,97792.94
2022-09-09T18:30:11.348Z,97789.50
2022-09-09T18:32:40.293Z,97798.09
2022-09-09T18:35:09.595Z,97807.84
2022-09-09T18:37:39.249Z,97799.13
2022-09-09T18:40:09.111Z,97812.88
2022-09-09T18:42:37.631Z,97799.69
2022-09-09T18:45:08.899Z,97793.38
2022-09-09T18:47:37.726Z,97799.31
2022-09-09T18:50:07.120Z,97790.84
2022-09-09T18:52:35.882Z,97794.31
2022-09-09T18:55:04.528Z,97796.94
2022-09-09T18:57:36.359Z,97797.75
2022-09-09T19:00:10.175Z,97796.94
2022-09-09T19:02:39.176Z,97793.50
2022-09-09T19:05:08.287Z,97800.59
2022-09-09T19:07:36.782Z,97802.22
2022-09-09T19:10:05.887Z,97792.13
2022-09-09T19:12:34.687Z,97796.22
2022-09-09T19:15:03.466Z,97791.41
2022-09-09T19:17:34.452Z,97795.88
2022-09-09T19:20:03.707Z,97795.06
2022-09-09T19:22:32.417Z,97789.22
2022-09-09T19:25:03.658Z,97798.97
2022-09-09T19:27:32.034Z,97801.69
2022-09-09T19:30:00.861Z,97804.59
2022-09-09T19:32:52.053Z,97806.22
2022-09-09T19:35:20.344Z,97797.97
2022-09-09T19:37:48.819Z,97811.72
2022-09-09T19:40:17.584Z,97810.34
2022-09-09T19:42:46.121Z,97810.34
2022-09-09T19:45:14.990Z,97810.78
2022-09-09T19:47:44.018Z,97809.16
2022-09-09T19:50:12.430Z,97805.50
2022-09-09T19:52:42.454Z,97809.16
2022-09-09T19:55:12.073Z,97805.97
2022-09-09T19:57:41.431Z,97810.28
2022-09-09T20:00:12.569Z,97812.09
2022-09-09T20:02:53.870Z,97810.94
2022-09-09T20:05:35.321Z,97817.69
2022-09-09T20:08:06.070Z,97813.44
2022-09-09T20:10:34.713Z,97813.66
2022-09-09T20:13:03.170Z,97811.25
2022-09-09T20:15:32.122Z,97813.28
2022-09-09T20:18:00.677Z,97804.59
2022-09-09T20:20:29.242Z,97810.28
2022-09-09T20:22:57.669Z,97812.16
2022-09-09T20:25:27.680Z,97812.16
2022-09-09T20:27:56.272Z,97810.75
2022-09-09T20:30:24.876Z,97809.94
2022-09-09T20:32:54.088Z,97809.22
2022-09-09T20:35:22.870Z,97814.47
2022-09-09T20:37:51.348Z,97815.72
2022-09-09T20:40:23.491Z,97819.63
2022-09-09T20:42:55.336Z,97827.50
2022-09-09T20:45:24.327Z,97820.63
2022-09-09T20:47:54.485Z,97827.50
2022-09-09T20:50:23.074Z,97828.53
2022-09-09T20:52:52.481Z,97830.78
2022-09-09T20:55:20.999Z,97826.34
2022-09-09T20:57:49.887Z,97816.69
2022-09-09T21:00:20.387Z,97817.25
2022-09-09T21:02:48.943Z,97817.50
2022-09-09T21:05:23.312Z,97816.09
2022-09-09T21:07:52.825Z,97814.25
2022-09-09T21:10:21.373Z,97809.00
2022-09-09T21:12:50.483Z,97804.53
2022-09-09T21:15:20.487Z,97802.50
2022-09-09T21:17:49.103Z,97797.66
2022-09-09T21:20:17.804Z,97806.59
2022-09-09T21:22:46.361Z,97808.78
2022-09-09T21:25:15.321Z,97806.16
2022-09-09T21:27:44.440Z,97809.81
2022-09-09T21:30:15.078Z,97813.31
2022-09-09T21:32:45.641Z,97808.06
2022-09-09T21:35:14.471Z,97807.63
2022-09-09T21:37:42.926Z,97802.94
2022-09-09T21:40:13.470Z,97801.91
2022-09-09T21:42:42.018Z,97795.63
2022-09-09T21:45:11.678Z,97793.56
2022-09-09T21:47:40.250Z,97795.19
2022-09-09T21:50:11.216Z,97810.97
2022-09-09T21:52:40.630Z,97795.19
2022-09-09T21:55:10.347Z,97801.25
2022-09-09T21:57:38.811Z,97806.88
2022-09-09T22:00:12.568Z,97798.38
2022-09-09T22:02:42.020Z,97807.34
2022-09-09T22:05:14.304Z,97809.72
2022-09-09T22:07:43.491Z,97805.88
2022-09-09T22:10:13.099Z,97806.44
2022-09-09T22:12:42.217Z,97800.72
2022-09-09T22:15:13.326Z,97805.19
2022-09-09T22:17:41.812Z,97803.56
2022-09-09T22:20:13.421Z,97806.44
2022-09-09T22:22:41.882Z,97809.66
2022-09-09T22:25:11.934Z,97817.56
2022-09-09T22:27:40.408Z,97812.88
2022-09-09T22:30:12.139Z,97815.06
2022-09-09T22:32:41.144Z,97804.31
2022-09-09T22:35:13.020Z,97804.53
2022-09-09T22:37:41.482Z,97811.19
2022-09-09T22:40:12.316Z,97806.72
2022-09-09T22:42:41.465Z,97802.91
2022-09-09T22:45:12.201Z,97810.00
2022-09-09T22:47:43.107Z,97807.19
2022-09-09T22:50:13.115Z,97807.53
2022-09-09T22:52:41.618Z,97799.63
2022-09-09T22:55:10.749Z,97807.91
2022-09-09T22:57:40.535Z,97811.09
2022-09-09T23:00:10.802Z,97814.78
2022-09-09T23:02:40.826Z,97809.72
2022-09-09T23:05:11.455Z,97814.78
2022-09-09T23:07:43.135Z,97810.28
2022-09-09T23:10:13.434Z,97815.56
2022-09-09T23:12:42.155Z,97813.97
2022-09-09T23:15:12.752Z,97817.19
2022-09-09T23:17:42.386Z,97823.03
2022-09-09T23:20:12.549Z,97820.19
2022-09-09T23:22:43.531Z,97823.41
2022-09-09T23:25:12.785Z,97829.69
2022-09-09T23:27:41.667Z,97831.31
2022-09-09T23:30:12.334Z,97831.31
2022-09-09T23:32:40.873Z,97833.34
2022-09-09T23:35:09.995Z,97832.31
2022-09-09T23:37:39.115Z,97830.50
2022-09-09T23:40:10.397Z,97830.25
2022-09-09T23:42:39.839Z,97829.25
2022-09-09T23:45:11.931Z,97831.31
2022-09-09T23:47:40.432Z,97828.88
2022-09-09T23:50:10.921Z,97827.50
2022-09-09T23:52:45.377Z,97831.38
2022-09-09T23:55:15.895Z,97841.13
2022-09-09T23:57:44.981Z,97832.97
